createdAt,value
2018-06-11T00:01:41.456Z,8.50
2018-06-11T00:04:18.117Z,7.25
2018-06-11T00:06:51.954Z,7.83
2018-06-11T00:09:30.859Z,8.08
2018-06-11T00:12:03.814Z,10.72
2018-06-11T00:14:37.942Z,8.20
2018-06-11T00:17:20.423Z,9.28
2018-06-11T00:19:58.061Z,7.77
2018-06-11T00:22:38.107Z,7.78
2018-06-11T00:25:13.017Z,7.97
2018-06-11T00:27:53.170Z,9.55
2018-06-11T00:30:28.407Z,9.13
2018-06-11T00:33:04.771Z,8.88
2018-06-11T00:35:46.178Z,11.45
2018-06-11T00:38:25.818Z,8.60
2018-06-11T00:41:03.339Z,8.30
2018-06-11T00:46:39.553Z,8.88
2018-06-11T00:49:20.175Z,8.88
2018-06-11T00:57:42.705Z,8.83
2018-06-11T01:00:29.713Z,8.50
2018-06-11T01:28:55.547Z,11.38
2018-06-11T01:40:14.195Z,12.65
2018-06-11T02:13:15.057Z,14.50
2018-06-11T02:30:58.393Z,13.30
2018-06-11T04:19:55.528Z,16.40
2018-06-11T04:22:23.014Z,17.87
2018-06-11T04:24:50.523Z,17.95
2018-06-11T04:27:18.050Z,17.85
2018-06-11T04:29:45.614Z,17.60
2018-06-11T04:32:13.059Z,18.15
2018-06-11T04:34:40.571Z,15.83
2018-06-11T04:37:08.071Z,15.58
2018-06-11T04:39:35.591Z,18.00
2018-06-11T04:42:03.060Z,20.17
2018-06-11T04:44:30.612Z,19.90
2018-06-11T04:46:58.081Z,17.37
2018-06-11T04:49:25.606Z,18.30
2018-06-11T04:51:53.165Z,17.77
2018-06-11T04:54:20.642Z,18.60
2018-06-11T04:56:48.154Z,18.73
2018-06-11T04:59:15.637Z,18.80
2018-06-11T05:01:43.158Z,17.62
2018-06-11T05:04:10.679Z,20.65
2018-06-11T05:06:38.164Z,17.90
2018-06-11T05:09:06.274Z,18.98
2018-06-11T05:11:33.797Z,18.98
2018-06-11T05:14:01.311Z,18.00
2018-06-11T05:16:28.909Z,16.20
2018-06-11T05:18:56.407Z,18.02
2018-06-11T05:21:23.956Z,17.98
2018-06-11T05:23:51.473Z,20.55
2018-06-11T05:26:19.014Z,18.70
2018-06-11T05:28:46.579Z,18.80
2018-06-11T05:31:14.067Z,19.00
2018-06-11T05:33:41.576Z,18.87
2018-06-11T05:36:09.118Z,17.27
2018-06-11T05:38:36.662Z,19.45
2018-06-11T05:41:04.172Z,17.80
2018-06-11T05:43:31.766Z,17.37
2018-06-11T05:45:59.359Z,17.52
2018-06-11T05:48:26.882Z,16.47
2018-06-11T05:50:54.405Z,15.03
2018-06-11T05:53:21.951Z,15.33
2018-06-11T05:55:49.515Z,16.17
2018-06-11T05:58:17.040Z,16.10
2018-06-11T06:00:44.559Z,15.53
2018-06-11T06:03:12.106Z,14.60
2018-06-11T06:05:39.639Z,15.40
2018-06-11T06:08:07.146Z,16.00
2018-06-11T06:10:34.762Z,15.33
2018-06-11T06:13:02.578Z,12.87
2018-06-11T06:15:30.122Z,15.00
2018-06-11T06:17:57.611Z,14.20
2018-06-11T06:20:25.180Z,12.87
2018-06-11T06:22:52.630Z,13.07
2018-06-11T06:25:20.141Z,11.30
2018-06-11T06:27:47.634Z,12.13
2018-06-11T06:30:15.165Z,12.67
2018-06-11T06:32:42.653Z,11.50
2018-06-11T06:35:10.186Z,9.90
2018-06-11T06:37:37.730Z,10.87
2018-06-11T06:40:05.255Z,11.03
2018-06-11T06:42:32.892Z,10.67
2018-06-11T06:45:00.425Z,11.13
2018-06-11T06:47:27.951Z,10.93
2018-06-11T06:49:55.472Z,13.60
2018-06-11T06:52:22.985Z,10.40
2018-06-11T06:54:50.509Z,9.47
2018-06-11T06:57:18.078Z,10.57
2018-06-11T06:59:45.585Z,9.73
2018-06-11T07:02:13.109Z,10.00
2018-06-11T07:04:40.606Z,8.83
2018-06-11T07:07:08.098Z,9.50
2018-06-11T07:09:35.634Z,9.93
2018-06-11T07:12:03.248Z,9.30
2018-06-11T07:14:30.742Z,10.17
2018-06-11T07:16:58.242Z,9.23
2018-06-11T07:19:25.706Z,8.73
2018-06-11T07:21:53.209Z,9.67
2018-06-11T07:24:20.715Z,9.50
2018-06-11T07:26:48.296Z,10.90
2018-06-11T07:29:15.791Z,9.70
2018-06-11T07:31:43.295Z,9.03
2018-06-11T07:34:10.860Z,9.50
2018-06-11T07:36:38.378Z,8.30
2018-06-11T07:39:06.890Z,8.30
2018-06-11T07:41:34.676Z,8.27
2018-06-11T07:44:02.285Z,9.20
2018-06-11T07:46:29.777Z,8.43
2018-06-11T14:57:25.495Z,9.60
2018-06-11T14:59:55.066Z,15.43
2018-06-11T15:02:23.447Z,8.47
2018-06-11T15:04:52.156Z,12.50
2018-06-11T15:07:20.900Z,9.37
2018-06-11T15:09:48.539Z,12.40
2018-06-11T15:12:16.432Z,10.33
2018-06-11T15:14:43.916Z,10.57
2018-06-11T15:17:11.486Z,10.00
2018-06-11T15:19:39.075Z,9.00
2018-06-11T15:22:06.593Z,8.70
2018-06-11T15:24:34.160Z,9.13
2018-06-11T15:27:01.706Z,9.30
2018-06-11T15:29:29.300Z,10.13
2018-06-11T15:44:32.330Z,7.37
2018-06-11T16:06:12.943Z,9.40
2018-06-11T16:08:52.708Z,12.03
2018-06-11T16:11:26.604Z,8.40
2018-06-11T16:14:00.494Z,8.10
2018-06-11T16:16:40.702Z,10.30
2018-06-11T16:19:31.308Z,7.92
2018-06-11T16:25:10.184Z,8.25
2018-06-11T16:27:46.850Z,11.73
2018-06-11T16:30:22.950Z,6.10
2018-06-11T16:32:56.158Z,6.62
2018-06-11T16:35:32.271Z,6.95
2018-06-11T16:38:05.511Z,6.97
2018-06-11T16:40:48.773Z,8.55
2018-06-11T16:43:22.737Z,9.45
2018-06-11T17:16:55.450Z,4.85
2018-06-11T17:19:40.636Z,4.12
2018-06-11T17:22:31.116Z,4.22
